Warrens, WI (54666)

5:58 PM CST on February 06, 2016 (GMT -0600)
Downtown Warrens | | Change Station
CLOSE
Current Station
Personal Weather Station
Location: Warrens, WI
Elevation: 1020 ft
Nearby Weather Stations

Elev 1020 ft 44.13 °N, 90.50 °W | Updated 25 seconds ago

Partly Cloudy
Partly Cloudy
32.0 °F
Feels Like 32 °F
N
1.8
Wind Variable Wind from SE
Gusts 2.5 mph

Today
High -- | Low -- °F
--% Chance of Precip.
Yesterday
High -- | Low -- °F
Precip. -- in
Pressure 30.04 in
Visibility 10.0 miles
Clouds Scattered Clouds 12000 ft
Windchill 32 °F
Dew Point 21 °F
Humidity 63%
Rainfall 0.05 in
Snow Depth Not available.
7:14 AM 5:18 PM
Waning Crescent, 3% visible
METAR KCMY 062335Z AUTO 18005KT 10SM SCT120 00/M04 A3004 RMK AO2 T00001037
Pressure 30.04 in
Visibility 10.0 miles
Clouds Scattered Clouds 12000 ft
Windchill 32 °F
Dew Point 21 °F
Humidity 63%
Rainfall 0.05 in
Snow Depth Not available.
7:14 AM 5:18 PM
Waning Crescent, 3% visible
METAR KCMY 062335Z AUTO 18005KT 10SM SCT120 00/M04 A3004 RMK AO2 T00001037

10-Day Weather Forecast

Almanac

Astronomy

Feb. 06, 2016 Rise Set
Actual Time
Civil Twilight
Nautical Twilight
Astronomical Twilight
Moon
Length of Visible Light
Length of Day
Tomorrow will be .
, % of the Moon is Illuminated

Today's Extremes

State Highs State Lows

Community

WunderPhotos

Upload Photos

1,891,098 photos uploaded!

WunderBlog® & News

Nearby

Air Quality

  Air Quality AQ Index Pollutant
Not available.

Snow Depth

Station Depth Elevation

Earthquake Activity

City Distance Mag. Time & Date
Minimum magnitude displayed is 2.5.

Coastal Water Temperatures

Place Temperature

Stations

Nearby Weather Stations

Station Location Temp. Windchill Dew Point Humidity Wind Precip. Elev Updated Type
                   

Watches & Warnings

There are currently no watches in effect.